sensor_id;sensor_type;location;lat;lon;timestamp;temperature;humidity
66568;DHT22;53422;49.296;6.900;2024-02-28T00:01:52;5.70;99.90
66568;DHT22;53422;49.296;6.900;2024-02-28T00:04:18;5.80;99.90
66568;DHT22;53422;49.296;6.900;2024-02-28T00:06:44;5.80;99.90
66568;DHT22;53422;49.296;6.900;2024-02-28T00:09:12;5.90;99.90
66568;DHT22;53422;49.296;6.900;2024-02-28T00:11:46;5.90;99.90
66568;DHT22;53422;49.296;6.900;2024-02-28T00:14:12;5.90;99.90
66568;DHT22;53422;49.296;6.900;2024-02-28T00:16:45;5.90;99.90
66568;DHT22;53422;49.296;6.900;2024-02-28T00:19:11;5.90;99.90
66568;DHT22;53422;49.296;6.900;2024-02-28T00:21:41;5.90;99.90
66568;DHT22;53422;49.296;6.900;2024-02-28T00:24:07;5.90;99.90
66568;DHT22;53422;49.296;6.900;2024-02-28T00:26:32;5.90;99.90
66568;DHT22;53422;49.296;6.900;2024-02-28T00:28:58;5.90;99.90
66568;DHT22;53422;49.296;6.900;2024-02-28T00:31:24;5.90;99.90
66568;DHT22;53422;49.296;6.900;2024-02-28T00:33:49;5.90;99.90
66568;DHT22;53422;49.296;6.900;2024-02-28T00:36:15;5.80;99.90
66568;DHT22;53422;49.296;6.900;2024-02-28T00:38:42;5.80;99.90
66568;DHT22;53422;49.296;6.900;2024-02-28T00:41:07;5.90;99.90
66568;DHT22;53422;49.296;6.900;2024-02-28T00:43:33;5.80;99.90
66568;DHT22;53422;49.296;6.900;2024-02-28T00:45:59;5.80;99.90
66568;DHT22;53422;49.296;6.900;2024-02-28T00:48:25;5.80;99.90
66568;DHT22;53422;49.296;6.900;2024-02-28T00:50:52;5.80;99.90
66568;DHT22;53422;49.296;6.900;2024-02-28T00:53:18;5.80;99.90
66568;DHT22;53422;49.296;6.900;2024-02-28T00:55:44;5.80;99.90
66568;DHT22;53422;49.296;6.900;2024-02-28T00:58:10;5.80;99.90
66568;DHT22;53422;49.296;6.900;2024-02-28T01:00:36;5.80;99.90
66568;DHT22;53422;49.296;6.900;2024-02-28T01:03:01;5.80;99.90
66568;DHT22;53422;49.296;6.900;2024-02-28T01:05:30;5.80;99.90
66568;DHT22;53422;49.296;6.900;2024-02-28T01:07:56;5.80;99.90
66568;DHT22;53422;49.296;6.900;2024-02-28T01:10:22;5.70;99.90
66568;DHT22;53422;49.296;6.900;2024-02-28T01:12:48;5.70;99.90
66568;DHT22;53422;49.296;6.900;2024-02-28T01:15:14;5.60;99.90
66568;DHT22;53422;49.296;6.900;2024-02-28T01:17:39;5.70;99.90
66568;DHT22;53422;49.296;6.900;2024-02-28T01:20:06;5.60;99.90
66568;DHT22;53422;49.296;6.900;2024-02-28T01:22:34;5.60;99.90
66568;DHT22;53422;49.296;6.900;2024-02-28T01:24:59;5.60;99.90
66568;DHT22;53422;49.296;6.900;2024-02-28T01:27:30;5.60;99.90
66568;DHT22;53422;49.296;6.900;2024-02-28T01:29:59;5.70;99.90
66568;DHT22;53422;49.296;6.900;2024-02-28T01:32:24;5.70;99.90
66568;DHT22;53422;49.296;6.900;2024-02-28T01:34:50;5.60;99.90
66568;DHT22;53422;49.296;6.900;2024-02-28T01:37:16;5.60;99.90
66568;DHT22;53422;49.296;6.900;2024-02-28T01:39:41;5.60;99.90
66568;DHT22;53422;49.296;6.900;2024-02-28T01:42:07;5.60;99.90
66568;DHT22;53422;49.296;6.900;2024-02-28T01:44:36;5.60;99.90
66568;DHT22;53422;49.296;6.900;2024-02-28T01:47:03;5.50;99.90
66568;DHT22;53422;49.296;6.900;2024-02-28T01:49:29;5.50;99.90
66568;DHT22;53422;49.296;6.900;2024-02-28T01:51:55;5.40;99.90
66568;DHT22;53422;49.296;6.900;2024-02-28T01:54:22;5.40;99.90
66568;DHT22;53422;49.296;6.900;2024-02-28T01:56:48;5.40;99.90
66568;DHT22;53422;49.296;6.900;2024-02-28T01:59:15;5.40;99.90
66568;DHT22;53422;49.296;6.900;2024-02-28T02:01:41;5.40;99.90
66568;DHT22;53422;49.296;6.900;2024-02-28T02:04:08;5.50;99.90
66568;DHT22;53422;49.296;6.900;2024-02-28T02:06:38;5.50;99.90
66568;DHT22;53422;49.296;6.900;2024-02-28T02:09:04;5.50;99.90
66568;DHT22;53422;49.296;6.900;2024-02-28T02:11:30;5.50;99.90
66568;DHT22;53422;49.296;6.900;2024-02-28T02:13:55;5.40;99.90
66568;DHT22;53422;49.296;6.900;2024-02-28T02:16:21;5.40;99.90
66568;DHT22;53422;49.296;6.900;2024-02-28T02:18:53;5.50;99.90
66568;DHT22;53422;49.296;6.900;2024-02-28T02:21:21;5.40;99.90
66568;DHT22;53422;49.296;6.900;2024-02-28T02:23:48;5.40;99.90
66568;DHT22;53422;49.296;6.900;2024-02-28T02:26:14;5.40;99.90
66568;DHT22;53422;49.296;6.900;2024-02-28T02:28:39;5.40;99.90
66568;DHT22;53422;49.296;6.900;2024-02-28T02:31:05;5.40;99.90
66568;DHT22;53422;49.296;6.900;2024-02-28T02:33:30;5.40;99.90
66568;DHT22;53422;49.296;6.900;2024-02-28T02:35:56;5.40;99.90
66568;DHT22;53422;49.296;6.900;2024-02-28T02:38:22;5.40;99.90
66568;DHT22;53422;49.296;6.900;2024-02-28T02:40:51;5.40;99.90
66568;DHT22;53422;49.296;6.900;2024-02-28T02:43:17;5.40;99.90
66568;DHT22;53422;49.296;6.900;2024-02-28T02:45:43;5.30;99.90
66568;DHT22;53422;49.296;6.900;2024-02-28T02:48:10;5.30;99.90
66568;DHT22;53422;49.296;6.900;2024-02-28T02:50:35;5.30;99.90
66568;DHT22;53422;49.296;6.900;2024-02-28T02:53:02;5.30;99.90
66568;DHT22;53422;49.296;6.900;2024-02-28T02:55:27;5.30;99.90
66568;DHT22;53422;49.296;6.900;2024-02-28T02:57:53;5.30;99.90
66568;DHT22;53422;49.296;6.900;2024-02-28T03:00:20;5.30;99.90
66568;DHT22;53422;49.296;6.900;2024-02-28T03:02:45;5.30;99.90
66568;DHT22;53422;49.296;6.900;2024-02-28T03:05:11;5.30;99.90
66568;DHT22;53422;49.296;6.900;2024-02-28T03:07:37;5.30;99.90
66568;DHT22;53422;49.296;6.900;2024-02-28T03:10:02;5.20;99.90
66568;DHT22;53422;49.296;6.900;2024-02-28T03:12:28;5.20;99.90
66568;DHT22;53422;49.296;6.900;2024-02-28T03:14:54;5.20;99.90
66568;DHT22;53422;49.296;6.900;2024-02-28T03:17:20;5.20;99.90
66568;DHT22;53422;49.296;6.900;2024-02-28T03:19:45;5.20;99.90
66568;DHT22;53422;49.296;6.900;2024-02-28T03:22:11;5.20;99.90
66568;DHT22;53422;49.296;6.900;2024-02-28T03:24:37;5.20;99.90
66568;DHT22;53422;49.296;6.900;2024-02-28T03:27:03;5.20;99.90
66568;DHT22;53422;49.296;6.900;2024-02-28T03:29:29;5.10;99.90
66568;DHT22;53422;49.296;6.900;2024-02-28T03:31:54;5.10;99.90
66568;DHT22;53422;49.296;6.900;2024-02-28T03:34:20;5.10;99.90
66568;DHT22;53422;49.296;6.900;2024-02-28T03:36:46;5.10;99.90
66568;DHT22;53422;49.296;6.900;2024-02-28T03:39:12;5.10;99.90
66568;DHT22;53422;49.296;6.900;2024-02-28T03:41:38;5.10;99.90
66568;DHT22;53422;49.296;6.900;2024-02-28T03:44:04;5.00;99.90
66568;DHT22;53422;49.296;6.900;2024-02-28T03:46:30;5.00;99.90
66568;DHT22;53422;49.296;6.900;2024-02-28T03:48:56;5.00;99.90
66568;DHT22;53422;49.296;6.900;2024-02-28T03:51:21;5.00;99.90
66568;DHT22;53422;49.296;6.900;2024-02-28T03:53:47;5.00;99.90
66568;DHT22;53422;49.296;6.900;2024-02-28T03:56:23;5.00;99.90
66568;DHT22;53422;49.296;6.900;2024-02-28T03:58:50;5.00;99.90
66568;DHT22;53422;49.296;6.900;2024-02-28T04:01:16;5.00;99.90
66568;DHT22;53422;49.296;6.900;2024-02-28T04:03:41;5.00;99.90
66568;DHT22;53422;49.296;6.900;2024-02-28T04:06:07;4.90;99.90
66568;DHT22;53422;49.296;6.900;2024-02-28T04:08:33;4.90;99.90
66568;DHT22;53422;49.296;6.900;2024-02-28T04:10:58;4.90;99.90
66568;DHT22;53422;49.296;6.900;2024-02-28T04:13:24;4.90;99.90
66568;DHT22;53422;49.296;6.900;2024-02-28T04:15:49;4.90;99.90
66568;DHT22;53422;49.296;6.900;2024-02-28T04:18:15;4.90;99.90
66568;DHT22;53422;49.296;6.900;2024-02-28T04:20:41;4.90;99.90
66568;DHT22;53422;49.296;6.900;2024-02-28T04:23:06;4.90;99.90
66568;DHT22;53422;49.296;6.900;2024-02-28T04:25:32;4.90;99.90
66568;DHT22;53422;49.296;6.900;2024-02-28T04:27:58;4.90;99.90
66568;DHT22;53422;49.296;6.900;2024-02-28T04:30:23;4.80;99.90
66568;DHT22;53422;49.296;6.900;2024-02-28T04:32:49;4.80;99.90
66568;DHT22;53422;49.296;6.900;2024-02-28T04:35:15;4.80;99.90
66568;DHT22;53422;49.296;6.900;2024-02-28T04:37:47;4.80;99.90
66568;DHT22;53422;49.296;6.900;2024-02-28T04:40:13;4.80;99.90
66568;DHT22;53422;49.296;6.900;2024-02-28T04:42:39;4.80;99.90
66568;DHT22;53422;49.296;6.900;2024-02-28T04:45:05;4.80;99.90
66568;DHT22;53422;49.296;6.900;2024-02-28T04:47:31;4.70;99.90
66568;DHT22;53422;49.296;6.900;2024-02-28T04:49:57;4.70;99.90
66568;DHT22;53422;49.296;6.900;2024-02-28T04:52:23;4.70;99.90
66568;DHT22;53422;49.296;6.900;2024-02-28T04:54:50;4.70;99.90
66568;DHT22;53422;49.296;6.900;2024-02-28T04:57:16;4.70;99.90
66568;DHT22;53422;49.296;6.900;2024-02-28T04:59:43;4.70;99.90
66568;DHT22;53422;49.296;6.900;2024-02-28T05:02:09;4.70;99.90
66568;DHT22;53422;49.296;6.900;2024-02-28T05:04:34;4.70;99.90
66568;DHT22;53422;49.296;6.900;2024-02-28T05:07:00;4.70;99.90
66568;DHT22;53422;49.296;6.900;2024-02-28T05:09:26;4.60;99.90
66568;DHT22;53422;49.296;6.900;2024-02-28T05:11:51;4.60;99.90
66568;DHT22;53422;49.296;6.900;2024-02-28T05:14:17;4.60;99.90
66568;DHT22;53422;49.296;6.900;2024-02-28T05:16:43;4.60;99.90
66568;DHT22;53422;49.296;6.900;2024-02-28T05:19:08;4.60;99.90
66568;DHT22;53422;49.296;6.900;2024-02-28T05:21:41;4.60;99.90
66568;DHT22;53422;49.296;6.900;2024-02-28T05:24:10;4.60;99.90
66568;DHT22;53422;49.296;6.900;2024-02-28T05:26:36;4.60;99.90
66568;DHT22;53422;49.296;6.900;2024-02-28T05:29:03;4.60;99.90
66568;DHT22;53422;49.296;6.900;2024-02-28T05:31:29;4.60;99.90
66568;DHT22;53422;49.296;6.900;2024-02-28T05:33:57;4.50;99.90
66568;DHT22;53422;49.296;6.900;2024-02-28T05:36:24;4.50;99.90
66568;DHT22;53422;49.296;6.900;2024-02-28T05:38:51;4.50;99.90
66568;DHT22;53422;49.296;6.900;2024-02-28T05:41:17;4.50;99.90
66568;DHT22;53422;49.296;6.900;2024-02-28T05:43:43;4.50;99.90
66568;DHT22;53422;49.296;6.900;2024-02-28T05:46:09;4.50;99.90
66568;DHT22;53422;49.296;6.900;2024-02-28T05:48:35;4.50;99.90
66568;DHT22;53422;49.296;6.900;2024-02-28T05:51:01;4.50;99.90
66568;DHT22;53422;49.296;6.900;2024-02-28T05:53:27;4.50;99.90
66568;DHT22;53422;49.296;6.900;2024-02-28T05:55:54;4.40;99.90
66568;DHT22;53422;49.296;6.900;2024-02-28T05:58:22;4.40;99.90
66568;DHT22;53422;49.296;6.900;2024-02-28T06:00:48;4.40;99.90
66568;DHT22;53422;49.296;6.900;2024-02-28T06:03:14;4.40;99.90
66568;DHT22;53422;49.296;6.900;2024-02-28T06:05:40;4.40;99.90
66568;DHT22;53422;49.296;6.900;2024-02-28T06:08:06;4.40;99.90
66568;DHT22;53422;49.296;6.900;2024-02-28T06:10:32;4.40;99.90
66568;DHT22;53422;49.296;6.900;2024-02-28T06:12:57;4.40;99.90
66568;DHT22;53422;49.296;6.900;2024-02-28T06:15:23;4.40;99.90
66568;DHT22;53422;49.296;6.900;2024-02-28T06:17:49;4.30;99.90
66568;DHT22;53422;49.296;6.900;2024-02-28T06:20:14;4.40;99.90
66568;DHT22;53422;49.296;6.900;2024-02-28T06:22:40;4.30;99.90
66568;DHT22;53422;49.296;6.900;2024-02-28T06:25:07;4.30;99.90
66568;DHT22;53422;49.296;6.900;2024-02-28T06:27:39;4.30;99.90
66568;DHT22;53422;49.296;6.900;2024-02-28T06:30:06;4.30;99.90
66568;DHT22;53422;49.296;6.900;2024-02-28T06:32:32;4.30;99.90
66568;DHT22;53422;49.296;6.900;2024-02-28T06:34:58;4.30;99.90
66568;DHT22;53422;49.296;6.900;2024-02-28T06:37:24;4.30;99.90
66568;DHT22;53422;49.296;6.900;2024-02-28T06:39:49;4.30;99.90
66568;DHT22;53422;49.296;6.900;2024-02-28T06:42:15;4.30;99.90
66568;DHT22;53422;49.296;6.900;2024-02-28T06:44:41;4.30;99.90
66568;DHT22;53422;49.296;6.900;2024-02-28T06:47:07;4.30;99.90
66568;DHT22;53422;49.296;6.900;2024-02-28T06:49:33;4.20;99.90
66568;DHT22;53422;49.296;6.900;2024-02-28T06:51:59;4.10;99.90
66568;DHT22;53422;49.296;6.900;2024-02-28T06:54:27;4.20;99.90
66568;DHT22;53422;49.296;6.900;2024-02-28T06:56:53;4.20;99.90
66568;DHT22;53422;49.296;6.900;2024-02-28T06:59:19;4.20;99.90
66568;DHT22;53422;49.296;6.900;2024-02-28T07:01:44;4.20;99.90
66568;DHT22;53422;49.296;6.900;2024-02-28T07:04:10;4.20;99.90
66568;DHT22;53422;49.296;6.900;2024-02-28T07:06:37;4.20;99.90
66568;DHT22;53422;49.296;6.900;2024-02-28T07:09:02;4.10;99.90
66568;DHT22;53422;49.296;6.900;2024-02-28T07:11:28;4.20;99.90
66568;DHT22;53422;49.296;6.900;2024-02-28T07:13:54;4.20;99.90
66568;DHT22;53422;49.296;6.900;2024-02-28T07:16:20;4.20;99.90
66568;DHT22;53422;49.296;6.900;2024-02-28T07:18:45;4.20;99.90
66568;DHT22;53422;49.296;6.900;2024-02-28T07:21:11;4.20;99.90
66568;DHT22;53422;49.296;6.900;2024-02-28T07:23:40;4.10;99.90
66568;DHT22;53422;49.296;6.900;2024-02-28T07:26:06;4.10;99.90
66568;DHT22;53422;49.296;6.900;2024-02-28T07:28:32;4.10;99.90
66568;DHT22;53422;49.296;6.900;2024-02-28T07:30:58;4.10;99.90
66568;DHT22;53422;49.296;6.900;2024-02-28T07:33:24;4.20;99.90
66568;DHT22;53422;49.296;6.900;2024-02-28T07:35:52;4.30;99.90
66568;DHT22;53422;49.296;6.900;2024-02-28T07:38:20;4.30;99.90
66568;DHT22;53422;49.296;6.900;2024-02-28T07:40:48;4.30;99.90
66568;DHT22;53422;49.296;6.900;2024-02-28T07:43:14;4.30;99.90
66568;DHT22;53422;49.296;6.900;2024-02-28T07:45:40;4.30;99.90
66568;DHT22;53422;49.296;6.900;2024-02-28T07:48:06;4.30;99.90
66568;DHT22;53422;49.296;6.900;2024-02-28T07:50:32;4.30;99.90
66568;DHT22;53422;49.296;6.900;2024-02-28T07:52:57;4.30;99.90
66568;DHT22;53422;49.296;6.900;2024-02-28T07:55:23;4.30;99.90
66568;DHT22;53422;49.296;6.900;2024-02-28T07:57:53;4.30;99.90
66568;DHT22;53422;49.296;6.900;2024-02-28T08:00:19;4.30;99.90
66568;DHT22;53422;49.296;6.900;2024-02-28T08:02:45;4.30;99.90
66568;DHT22;53422;49.296;6.900;2024-02-28T08:05:12;4.30;99.90
66568;DHT22;53422;49.296;6.900;2024-02-28T08:07:38;4.30;99.90
66568;DHT22;53422;49.296;6.900;2024-02-28T08:10:04;4.30;99.90
66568;DHT22;53422;49.296;6.900;2024-02-28T08:12:32;4.30;99.90
66568;DHT22;53422;49.296;6.900;2024-02-28T08:14:58;4.30;99.90
66568;DHT22;53422;49.296;6.900;2024-02-28T08:17:24;4.30;99.90
66568;DHT22;53422;49.296;6.900;2024-02-28T08:19:50;4.40;99.90
66568;DHT22;53422;49.296;6.900;2024-02-28T08:22:15;4.40;99.90
66568;DHT22;53422;49.296;6.900;2024-02-28T08:24:41;4.50;99.90
66568;DHT22;53422;49.296;6.900;2024-02-28T08:27:07;4.50;99.90
66568;DHT22;53422;49.296;6.900;2024-02-28T08:29:33;4.50;99.90
66568;DHT22;53422;49.296;6.900;2024-02-28T08:32:01;4.50;99.90
66568;DHT22;53422;49.296;6.900;2024-02-28T08:34:27;4.50;99.90
66568;DHT22;53422;49.296;6.900;2024-02-28T08:36:52;4.50;99.90
66568;DHT22;53422;49.296;6.900;2024-02-28T08:39:19;4.50;99.90
66568;DHT22;53422;49.296;6.900;2024-02-28T08:41:45;4.60;99.90
66568;DHT22;53422;49.296;6.900;2024-02-28T08:44:12;4.60;99.90
66568;DHT22;53422;49.296;6.900;2024-02-28T08:46:38;4.60;99.90
66568;DHT22;53422;49.296;6.900;2024-02-28T08:49:03;4.60;99.90
66568;DHT22;53422;49.296;6.900;2024-02-28T08:51:29;4.60;99.90
66568;DHT22;53422;49.296;6.900;2024-02-28T08:53:55;4.60;99.90
66568;DHT22;53422;49.296;6.900;2024-02-28T08:56:24;4.70;99.90
66568;DHT22;53422;49.296;6.900;2024-02-28T08:58:50;4.70;99.90
66568;DHT22;53422;49.296;6.900;2024-02-28T09:01:16;4.70;99.90
66568;DHT22;53422;49.296;6.900;2024-02-28T09:03:42;4.70;99.90
66568;DHT22;53422;49.296;6.900;2024-02-28T09:06:08;4.80;99.90
66568;DHT22;53422;49.296;6.900;2024-02-28T09:08:33;4.80;99.90
66568;DHT22;53422;49.296;6.900;2024-02-28T09:10:59;4.80;99.90
66568;DHT22;53422;49.296;6.900;2024-02-28T09:13:25;4.80;99.90
66568;DHT22;53422;49.296;6.900;2024-02-28T09:15:52;4.80;99.90
66568;DHT22;53422;49.296;6.900;2024-02-28T09:18:22;4.90;99.90
66568;DHT22;53422;49.296;6.900;2024-02-28T09:20:51;4.90;99.90
66568;DHT22;53422;49.296;6.900;2024-02-28T09:23:16;4.90;99.90
66568;DHT22;53422;49.296;6.900;2024-02-28T09:25:42;4.90;99.90
66568;DHT22;53422;49.296;6.900;2024-02-28T09:28:07;5.00;99.90
66568;DHT22;53422;49.296;6.900;2024-02-28T09:30:34;5.00;99.90
66568;DHT22;53422;49.296;6.900;2024-02-28T09:32:59;5.00;99.90
66568;DHT22;53422;49.296;6.900;2024-02-28T09:35:25;5.00;99.90
66568;DHT22;53422;49.296;6.900;2024-02-28T09:37:54;5.00;99.90
66568;DHT22;53422;49.296;6.900;2024-02-28T09:40:20;5.00;99.90
66568;DHT22;53422;49.296;6.900;2024-02-28T09:42:53;5.00;99.90
66568;DHT22;53422;49.296;6.900;2024-02-28T09:45:20;5.00;99.90
66568;DHT22;53422;49.296;6.900;2024-02-28T09:47:47;5.20;99.90
66568;DHT22;53422;49.296;6.900;2024-02-28T09:50:13;5.20;99.90
66568;DHT22;53422;49.296;6.900;2024-02-28T09:52:40;5.20;99.90
66568;DHT22;53422;49.296;6.900;2024-02-28T09:55:08;5.20;99.90
66568;DHT22;53422;49.296;6.900;2024-02-28T09:57:34;5.30;99.90
66568;DHT22;53422;49.296;6.900;2024-02-28T10:00:00;5.30;99.90
66568;DHT22;53422;49.296;6.900;2024-02-28T10:02:26;5.40;99.90
66568;DHT22;53422;49.296;6.900;2024-02-28T10:04:53;5.40;99.90
66568;DHT22;53422;49.296;6.900;2024-02-28T10:07:19;5.50;99.90
66568;DHT22;53422;49.296;6.900;2024-02-28T10:09:45;5.50;99.90
66568;DHT22;53422;49.296;6.900;2024-02-28T10:12:11;5.50;99.90
66568;DHT22;53422;49.296;6.900;2024-02-28T10:14:37;5.60;99.90
66568;DHT22;53422;49.296;6.900;2024-02-28T10:17:05;5.60;99.90
66568;DHT22;53422;49.296;6.900;2024-02-28T10:19:30;5.60;99.90
66568;DHT22;53422;49.296;6.900;2024-02-28T10:21:56;5.70;99.90
66568;DHT22;53422;49.296;6.900;2024-02-28T10:24:24;5.70;99.90
66568;DHT22;53422;49.296;6.900;2024-02-28T10:26:50;5.70;99.90
66568;DHT22;53422;49.296;6.900;2024-02-28T10:29:23;5.70;99.90
66568;DHT22;53422;49.296;6.900;2024-02-28T10:31:52;5.70;99.90
66568;DHT22;53422;49.296;6.900;2024-02-28T10:34:18;5.80;99.90
66568;DHT22;53422;49.296;6.900;2024-02-28T10:36:47;5.80;99.90
66568;DHT22;53422;49.296;6.900;2024-02-28T10:39:14;5.80;99.90
66568;DHT22;53422;49.296;6.900;2024-02-28T10:41:39;5.80;99.90
66568;DHT22;53422;49.296;6.900;2024-02-28T10:44:05;5.80;99.90
66568;DHT22;53422;49.296;6.900;2024-02-28T10:46:32;5.90;99.90
66568;DHT22;53422;49.296;6.900;2024-02-28T10:48:57;5.90;99.90
66568;DHT22;53422;49.296;6.900;2024-02-28T10:51:24;5.90;99.90
66568;DHT22;53422;49.296;6.900;2024-02-28T10:54:12;5.90;99.90
66568;DHT22;53422;49.296;6.900;2024-02-28T10:56:39;5.90;99.90
66568;DHT22;53422;49.296;6.900;2024-02-28T10:59:07;5.90;99.90
66568;DHT22;53422;49.296;6.900;2024-02-28T11:01:38;6.00;99.90
66568;DHT22;53422;49.296;6.900;2024-02-28T11:04:07;6.10;99.90
66568;DHT22;53422;49.296;6.900;2024-02-28T11:06:33;6.10;99.90
66568;DHT22;53422;49.296;6.900;2024-02-28T11:09:03;6.20;99.90
66568;DHT22;53422;49.296;6.900;2024-02-28T11:11:32;6.20;99.90
66568;DHT22;53422;49.296;6.900;2024-02-28T11:13:59;6.20;99.90
66568;DHT22;53422;49.296;6.900;2024-02-28T11:16:33;6.30;99.90
66568;DHT22;53422;49.296;6.900;2024-02-28T11:19:01;6.30;99.90
66568;DHT22;53422;49.296;6.900;2024-02-28T11:21:27;6.30;99.90
66568;DHT22;53422;49.296;6.900;2024-02-28T11:24:01;6.30;99.90
66568;DHT22;53422;49.296;6.900;2024-02-28T11:26:27;6.40;99.90
66568;DHT22;53422;49.296;6.900;2024-02-28T11:28:54;6.40;99.90
66568;DHT22;53422;49.296;6.900;2024-02-28T11:31:21;6.50;99.90
66568;DHT22;53422;49.296;6.900;2024-02-28T11:33:46;6.50;99.90
66568;DHT22;53422;49.296;6.900;2024-02-28T11:36:12;6.60;99.90
66568;DHT22;53422;49.296;6.900;2024-02-28T11:38:39;6.60;99.90
66568;DHT22;53422;49.296;6.900;2024-02-28T11:41:05;6.60;99.90
66568;DHT22;53422;49.296;6.900;2024-02-28T11:43:31;6.70;99.90
66568;DHT22;53422;49.296;6.900;2024-02-28T11:45:58;6.70;99.90
66568;DHT22;53422;49.296;6.900;2024-02-28T11:48:26;6.80;99.90
66568;DHT22;53422;49.296;6.900;2024-02-28T11:50:53;6.80;99.90
66568;DHT22;53422;49.296;6.900;2024-02-28T11:53:19;6.90;99.90
66568;DHT22;53422;49.296;6.900;2024-02-28T11:55:48;6.90;99.90
66568;DHT22;53422;49.296;6.900;2024-02-28T11:58:15;7.00;99.90
66568;DHT22;53422;49.296;6.900;2024-02-28T12:00:50;7.10;99.90
66568;DHT22;53422;49.296;6.900;2024-02-28T12:03:23;7.10;99.90
66568;DHT22;53422;49.296;6.900;2024-02-28T12:05:49;7.10;99.90
66568;DHT22;53422;49.296;6.900;2024-02-28T12:08:16;7.20;99.90
66568;DHT22;53422;49.296;6.900;2024-02-28T12:10:42;7.20;99.90
66568;DHT22;53422;49.296;6.900;2024-02-28T12:13:08;7.20;99.90
66568;DHT22;53422;49.296;6.900;2024-02-28T12:15:34;7.30;99.90
66568;DHT22;53422;49.296;6.900;2024-02-28T12:18:07;7.30;99.90
66568;DHT22;53422;49.296;6.900;2024-02-28T12:20:34;7.30;99.90
66568;DHT22;53422;49.296;6.900;2024-02-28T12:23:00;7.30;99.90
66568;DHT22;53422;49.296;6.900;2024-02-28T12:25:25;7.30;99.90
66568;DHT22;53422;49.296;6.900;2024-02-28T12:27:51;7.30;99.90
66568;DHT22;53422;49.296;6.900;2024-02-28T12:30:17;7.40;99.90
66568;DHT22;53422;49.296;6.900;2024-02-28T12:32:43;7.40;99.90
66568;DHT22;53422;49.296;6.900;2024-02-28T12:35:08;7.40;99.90
66568;DHT22;53422;49.296;6.900;2024-02-28T12:37:34;7.50;99.90
66568;DHT22;53422;49.296;6.900;2024-02-28T12:40:00;7.50;99.90
66568;DHT22;53422;49.296;6.900;2024-02-28T12:42:25;7.50;99.90
66568;DHT22;53422;49.296;6.900;2024-02-28T12:44:51;7.50;99.90
66568;DHT22;53422;49.296;6.900;2024-02-28T12:47:17;7.50;99.90
66568;DHT22;53422;49.296;6.900;2024-02-28T12:49:42;7.60;99.90
66568;DHT22;53422;49.296;6.900;2024-02-28T12:52:09;7.60;99.90
66568;DHT22;53422;49.296;6.900;2024-02-28T12:54:34;7.60;99.90
66568;DHT22;53422;49.296;6.900;2024-02-28T12:57:01;7.70;99.90
66568;DHT22;53422;49.296;6.900;2024-02-28T12:59:29;7.70;99.90
66568;DHT22;53422;49.296;6.900;2024-02-28T13:01:54;7.80;99.90
66568;DHT22;53422;49.296;6.900;2024-02-28T13:04:20;7.70;99.90
66568;DHT22;53422;49.296;6.900;2024-02-28T13:06:46;7.70;99.90
66568;DHT22;53422;49.296;6.900;2024-02-28T13:09:11;7.70;99.90
66568;DHT22;53422;49.296;6.900;2024-02-28T13:11:40;7.80;99.90
66568;DHT22;53422;49.296;6.900;2024-02-28T13:14:06;7.80;99.90
66568;DHT22;53422;49.296;6.900;2024-02-28T13:16:34;7.80;99.90
66568;DHT22;53422;49.296;6.900;2024-02-28T13:18:59;7.80;99.90
66568;DHT22;53422;49.296;6.900;2024-02-28T13:21:25;7.80;99.90
66568;DHT22;53422;49.296;6.900;2024-02-28T13:23:51;7.90;99.90
66568;DHT22;53422;49.296;6.900;2024-02-28T13:26:16;7.90;99.90
66568;DHT22;53422;49.296;6.900;2024-02-28T13:28:46;8.00;99.90
66568;DHT22;53422;49.296;6.900;2024-02-28T13:31:13;8.00;99.90
66568;DHT22;53422;49.296;6.900;2024-02-28T13:33:39;8.00;99.90
66568;DHT22;53422;49.296;6.900;2024-02-28T13:36:07;8.10;99.90
66568;DHT22;53422;49.296;6.900;2024-02-28T13:38:33;8.10;99.90
66568;DHT22;53422;49.296;6.900;2024-02-28T13:40:58;8.10;99.90
66568;DHT22;53422;49.296;6.900;2024-02-28T13:43:25;8.10;99.90
66568;DHT22;53422;49.296;6.900;2024-02-28T13:45:51;8.10;99.90
66568;DHT22;53422;49.296;6.900;2024-02-28T13:48:23;8.10;99.90
66568;DHT22;53422;49.296;6.900;2024-02-28T13:50:56;8.10;99.90
66568;DHT22;53422;49.296;6.900;2024-02-28T13:53:22;8.10;99.90
66568;DHT22;53422;49.296;6.900;2024-02-28T13:55:47;8.10;99.90
66568;DHT22;53422;49.296;6.900;2024-02-28T13:58:14;8.00;99.90
66568;DHT22;53422;49.296;6.900;2024-02-28T14:00:47;8.10;99.90
66568;DHT22;53422;49.296;6.900;2024-02-28T14:03:13;8.20;99.90
66568;DHT22;53422;49.296;6.900;2024-02-28T14:05:38;8.20;99.90
66568;DHT22;53422;49.296;6.900;2024-02-28T14:08:04;8.30;99.90
66568;DHT22;53422;49.296;6.900;2024-02-28T14:10:33;8.30;99.90
66568;DHT22;53422;49.296;6.900;2024-02-28T14:12:59;8.30;99.90
66568;DHT22;53422;49.296;6.900;2024-02-28T14:15:25;8.30;99.90
66568;DHT22;53422;49.296;6.900;2024-02-28T14:17:51;8.30;99.90
66568;DHT22;53422;49.296;6.900;2024-02-28T14:20:19;8.40;99.90
66568;DHT22;53422;49.296;6.900;2024-02-28T14:22:45;8.30;99.90
66568;DHT22;53422;49.296;6.900;2024-02-28T14:25:12;8.30;99.90
66568;DHT22;53422;49.296;6.900;2024-02-28T14:27:39;8.30;99.90
66568;DHT22;53422;49.296;6.900;2024-02-28T14:30:06;8.40;99.90
66568;DHT22;53422;49.296;6.900;2024-02-28T14:32:35;8.50;99.90
66568;DHT22;53422;49.296;6.900;2024-02-28T14:35:05;8.50;99.90
66568;DHT22;53422;49.296;6.900;2024-02-28T14:37:32;8.60;99.90
66568;DHT22;53422;49.296;6.900;2024-02-28T14:39:59;8.60;99.90
66568;DHT22;53422;49.296;6.900;2024-02-28T14:42:26;8.60;99.90
66568;DHT22;53422;49.296;6.900;2024-02-28T14:44:53;8.60;99.90
66568;DHT22;53422;49.296;6.900;2024-02-28T14:47:19;8.60;99.90
66568;DHT22;53422;49.296;6.900;2024-02-28T14:49:46;8.70;99.90
66568;DHT22;53422;49.296;6.900;2024-02-28T14:52:12;8.70;99.90
66568;DHT22;53422;49.296;6.900;2024-02-28T14:54:39;8.70;99.90
66568;DHT22;53422;49.296;6.900;2024-02-28T14:57:05;8.60;99.90
66568;DHT22;53422;49.296;6.900;2024-02-28T14:59:31;8.60;99.90
66568;DHT22;53422;49.296;6.900;2024-02-28T15:01:58;8.70;99.90
66568;DHT22;53422;49.296;6.900;2024-02-28T15:04:23;8.50;99.90
66568;DHT22;53422;49.296;6.900;2024-02-28T15:06:50;8.50;99.90
66568;DHT22;53422;49.296;6.900;2024-02-28T15:09:16;8.60;99.90
66568;DHT22;53422;49.296;6.900;2024-02-28T15:11:41;8.60;99.90
66568;DHT22;53422;49.296;6.900;2024-02-28T15:14:07;8.60;99.90
66568;DHT22;53422;49.296;6.900;2024-02-28T15:16:33;8.60;99.90
66568;DHT22;53422;49.296;6.900;2024-02-28T15:18:58;8.60;99.90
66568;DHT22;53422;49.296;6.900;2024-02-28T15:21:24;8.60;99.90
66568;DHT22;53422;49.296;6.900;2024-02-28T15:23:50;8.50;99.90
66568;DHT22;53422;49.296;6.900;2024-02-28T15:26:16;8.60;99.90
66568;DHT22;53422;49.296;6.900;2024-02-28T15:28:42;8.70;99.90
66568;DHT22;53422;49.296;6.900;2024-02-28T15:31:08;8.60;99.90
66568;DHT22;53422;49.296;6.900;2024-02-28T15:33:33;8.60;99.90
66568;DHT22;53422;49.296;6.900;2024-02-28T15:35:59;8.60;99.90
66568;DHT22;53422;49.296;6.900;2024-02-28T15:38:25;8.60;99.90
66568;DHT22;53422;49.296;6.900;2024-02-28T15:40:51;8.60;99.90